sensor_id;sensor_type;location;lat;lon;timestamp;temperature;humidity
10433;DHT22;5263;48.680;9.004;2023-04-06T00:01:21;-0.80;99.90
10433;DHT22;5263;48.680;9.004;2023-04-06T00:03:47;-0.70;99.90
10433;DHT22;5263;48.680;9.004;2023-04-06T00:06:12;-0.70;99.90
10433;DHT22;5263;48.680;9.004;2023-04-06T00:08:38;-0.60;99.90
10433;DHT22;5263;48.680;9.004;2023-04-06T00:11:04;-0.60;99.90
10433;DHT22;5263;48.680;9.004;2023-04-06T00:13:30;-0.70;99.90
10433;DHT22;5263;48.680;9.004;2023-04-06T00:15:55;-0.70;99.90
10433;DHT22;5263;48.680;9.004;2023-04-06T00:18:21;-0.70;99.90
10433;DHT22;5263;48.680;9.004;2023-04-06T00:20:47;-0.70;99.90
10433;DHT22;5263;48.680;9.004;2023-04-06T00:23:13;-0.60;99.90
10433;DHT22;5263;48.680;9.004;2023-04-06T00:25:38;-0.80;99.90
10433;DHT22;5263;48.680;9.004;2023-04-06T00:28:04;-0.80;99.90
10433;DHT22;5263;48.680;9.004;2023-04-06T00:30:30;-1.00;99.90
10433;DHT22;5263;48.680;9.004;2023-04-06T00:32:55;-1.10;99.90
10433;DHT22;5263;48.680;9.004;2023-04-06T00:35:21;-1.20;99.90
10433;DHT22;5263;48.680;9.004;2023-04-06T00:37:47;-1.20;99.90
10433;DHT22;5263;48.680;9.004;2023-04-06T00:40:13;-1.20;99.90
10433;DHT22;5263;48.680;9.004;2023-04-06T00:42:39;-1.20;99.90
10433;DHT22;5263;48.680;9.004;2023-04-06T00:45:05;-1.20;99.90
10433;DHT22;5263;48.680;9.004;2023-04-06T00:47:31;-1.00;99.90
10433;DHT22;5263;48.680;9.004;2023-04-06T00:49:56;-1.00;99.90
10433;DHT22;5263;48.680;9.004;2023-04-06T00:52:22;-1.10;99.90
10433;DHT22;5263;48.680;9.004;2023-04-06T00:54:49;-1.20;99.90
10433;DHT22;5263;48.680;9.004;2023-04-06T00:57:16;-1.00;99.90
10433;DHT22;5263;48.680;9.004;2023-04-06T00:59:42;-1.10;99.90
10433;DHT22;5263;48.680;9.004;2023-04-06T01:02:08;-1.10;99.90
10433;DHT22;5263;48.680;9.004;2023-04-06T01:04:34;-1.00;99.90
10433;DHT22;5263;48.680;9.004;2023-04-06T01:07:00;-0.90;99.90
10433;DHT22;5263;48.680;9.004;2023-04-06T01:09:29;-0.70;99.90
10433;DHT22;5263;48.680;9.004;2023-04-06T01:11:56;-1.00;99.90
10433;DHT22;5263;48.680;9.004;2023-04-06T01:14:23;-1.10;99.90
10433;DHT22;5263;48.680;9.004;2023-04-06T01:16:49;-1.20;99.90
10433;DHT22;5263;48.680;9.004;2023-04-06T01:19:14;-1.20;99.90
10433;DHT22;5263;48.680;9.004;2023-04-06T01:21:41;-1.20;99.90
10433;DHT22;5263;48.680;9.004;2023-04-06T01:24:07;-1.30;99.90
10433;DHT22;5263;48.680;9.004;2023-04-06T01:26:34;-1.40;99.90
10433;DHT22;5263;48.680;9.004;2023-04-06T01:29:00;-1.10;99.90
10433;DHT22;5263;48.680;9.004;2023-04-06T01:31:27;-1.20;99.90
10433;DHT22;5263;48.680;9.004;2023-04-06T01:33:53;-1.30;99.90
10433;DHT22;5263;48.680;9.004;2023-04-06T01:36:19;-1.10;99.90
10433;DHT22;5263;48.680;9.004;2023-04-06T01:38:45;-1.10;99.90
10433;DHT22;5263;48.680;9.004;2023-04-06T01:41:11;-1.10;99.90
10433;DHT22;5263;48.680;9.004;2023-04-06T01:43:37;-1.00;99.90
10433;DHT22;5263;48.680;9.004;2023-04-06T01:46:03;-1.10;99.90
10433;DHT22;5263;48.680;9.004;2023-04-06T01:48:28;-1.10;99.90
10433;DHT22;5263;48.680;9.004;2023-04-06T01:50:54;-1.10;99.90
10433;DHT22;5263;48.680;9.004;2023-04-06T01:53:20;-1.00;99.90
10433;DHT22;5263;48.680;9.004;2023-04-06T01:55:46;-0.90;99.90
10433;DHT22;5263;48.680;9.004;2023-04-06T01:58:12;-1.30;99.90
10433;DHT22;5263;48.680;9.004;2023-04-06T02:00:38;-1.50;99.90
10433;DHT22;5263;48.680;9.004;2023-04-06T02:03:04;-1.40;99.90
10433;DHT22;5263;48.680;9.004;2023-04-06T02:05:31;-1.30;99.90
10433;DHT22;5263;48.680;9.004;2023-04-06T02:07:58;-1.30;99.90
10433;DHT22;5263;48.680;9.004;2023-04-06T02:10:24;-1.40;99.90
10433;DHT22;5263;48.680;9.004;2023-04-06T02:12:50;-1.50;99.90
10433;DHT22;5263;48.680;9.004;2023-04-06T02:15:16;-1.60;99.90
10433;DHT22;5263;48.680;9.004;2023-04-06T02:17:42;-1.90;99.90
10433;DHT22;5263;48.680;9.004;2023-04-06T02:20:08;-1.90;99.90
10433;DHT22;5263;48.680;9.004;2023-04-06T02:22:35;-1.90;99.90
10433;DHT22;5263;48.680;9.004;2023-04-06T02:25:01;-1.70;99.90
10433;DHT22;5263;48.680;9.004;2023-04-06T02:27:27;-1.80;99.90
10433;DHT22;5263;48.680;9.004;2023-04-06T02:29:52;-1.80;99.90
10433;DHT22;5263;48.680;9.004;2023-04-06T02:32:18;-1.70;99.90
10433;DHT22;5263;48.680;9.004;2023-04-06T02:34:44;-1.70;99.90
10433;DHT22;5263;48.680;9.004;2023-04-06T02:37:10;-1.60;99.90
10433;DHT22;5263;48.680;9.004;2023-04-06T02:39:36;-1.60;99.90
10433;DHT22;5263;48.680;9.004;2023-04-06T02:42:01;-1.70;99.90
10433;DHT22;5263;48.680;9.004;2023-04-06T02:44:27;-1.80;99.90
10433;DHT22;5263;48.680;9.004;2023-04-06T02:46:52;-1.70;99.90
10433;DHT22;5263;48.680;9.004;2023-04-06T02:49:18;-1.60;99.90
10433;DHT22;5263;48.680;9.004;2023-04-06T02:51:44;-1.70;99.90
10433;DHT22;5263;48.680;9.004;2023-04-06T02:54:09;-1.80;99.90
10433;DHT22;5263;48.680;9.004;2023-04-06T02:56:35;-1.70;99.90
10433;DHT22;5263;48.680;9.004;2023-04-06T02:59:01;-1.80;99.90
10433;DHT22;5263;48.680;9.004;2023-04-06T03:01:26;-1.80;99.90
10433;DHT22;5263;48.680;9.004;2023-04-06T03:03:52;-1.90;99.90
10433;DHT22;5263;48.680;9.004;2023-04-06T03:06:18;-1.90;99.90
10433;DHT22;5263;48.680;9.004;2023-04-06T03:08:43;-2.00;99.90
10433;DHT22;5263;48.680;9.004;2023-04-06T03:11:09;-2.10;99.90
10433;DHT22;5263;48.680;9.004;2023-04-06T03:13:36;-2.10;99.90
10433;DHT22;5263;48.680;9.004;2023-04-06T03:16:04;-2.10;99.90
10433;DHT22;5263;48.680;9.004;2023-04-06T03:18:30;-2.20;99.90
10433;DHT22;5263;48.680;9.004;2023-04-06T03:20:56;-2.20;99.90
10433;DHT22;5263;48.680;9.004;2023-04-06T03:23:21;-2.40;99.90
10433;DHT22;5263;48.680;9.004;2023-04-06T03:25:47;-2.30;99.90
10433;DHT22;5263;48.680;9.004;2023-04-06T03:28:13;-2.10;99.90
10433;DHT22;5263;48.680;9.004;2023-04-06T03:30:38;-2.00;99.90
10433;DHT22;5263;48.680;9.004;2023-04-06T03:33:04;-2.00;99.90
10433;DHT22;5263;48.680;9.004;2023-04-06T03:35:30;-2.00;99.90
10433;DHT22;5263;48.680;9.004;2023-04-06T03:37:56;-2.00;99.90
10433;DHT22;5263;48.680;9.004;2023-04-06T03:40:21;-1.90;99.90
10433;DHT22;5263;48.680;9.004;2023-04-06T03:42:47;-2.00;99.90
10433;DHT22;5263;48.680;9.004;2023-04-06T03:45:12;-1.80;99.90
10433;DHT22;5263;48.680;9.004;2023-04-06T03:47:39;-1.50;99.90
10433;DHT22;5263;48.680;9.004;2023-04-06T03:50:05;-2.30;99.90
10433;DHT22;5263;48.680;9.004;2023-04-06T03:52:31;-2.10;99.90
10433;DHT22;5263;48.680;9.004;2023-04-06T03:54:57;-2.30;99.90
10433;DHT22;5263;48.680;9.004;2023-04-06T03:57:22;-2.40;99.90
10433;DHT22;5263;48.680;9.004;2023-04-06T03:59:48;-2.40;99.90
10433;DHT22;5263;48.680;9.004;2023-04-06T04:02:14;-2.30;99.90
10433;DHT22;5263;48.680;9.004;2023-04-06T04:04:40;-2.30;99.90
10433;DHT22;5263;48.680;9.004;2023-04-06T04:07:05;-2.20;99.90
10433;DHT22;5263;48.680;9.004;2023-04-06T04:09:31;-2.40;99.90
10433;DHT22;5263;48.680;9.004;2023-04-06T04:11:56;-1.40;99.90
10433;DHT22;5263;48.680;9.004;2023-04-06T04:14:22;-2.50;99.90
10433;DHT22;5263;48.680;9.004;2023-04-06T04:16:48;-2.60;99.90
10433;DHT22;5263;48.680;9.004;2023-04-06T04:19:13;-2.40;99.90
10433;DHT22;5263;48.680;9.004;2023-04-06T04:21:43;-2.20;99.90
10433;DHT22;5263;48.680;9.004;2023-04-06T04:24:12;-2.50;99.90
10433;DHT22;5263;48.680;9.004;2023-04-06T04:26:39;-2.30;99.90
10433;DHT22;5263;48.680;9.004;2023-04-06T04:29:05;-2.30;99.90
10433;DHT22;5263;48.680;9.004;2023-04-06T04:31:30;-2.30;99.90
10433;DHT22;5263;48.680;9.004;2023-04-06T04:33:57;-2.30;99.90
10433;DHT22;5263;48.680;9.004;2023-04-06T04:36:22;-2.30;99.90
10433;DHT22;5263;48.680;9.004;2023-04-06T04:38:49;-2.50;99.90
10433;DHT22;5263;48.680;9.004;2023-04-06T04:41:15;-2.40;99.90
10433;DHT22;5263;48.680;9.004;2023-04-06T04:43:41;-2.40;99.90
10433;DHT22;5263;48.680;9.004;2023-04-06T04:46:06;-2.30;99.90
10433;DHT22;5263;48.680;9.004;2023-04-06T04:48:32;-2.10;99.90
10433;DHT22;5263;48.680;9.004;2023-04-06T04:50:58;-2.00;99.90
10433;DHT22;5263;48.680;9.004;2023-04-06T04:53:23;-2.20;99.90
10433;DHT22;5263;48.680;9.004;2023-04-06T04:55:49;-2.20;99.90
10433;DHT22;5263;48.680;9.004;2023-04-06T04:58:15;-2.30;99.90
10433;DHT22;5263;48.680;9.004;2023-04-06T05:00:42;-2.30;99.90
10433;DHT22;5263;48.680;9.004;2023-04-06T05:03:11;-2.40;99.90
10433;DHT22;5263;48.680;9.004;2023-04-06T05:05:39;-2.30;99.90
10433;DHT22;5263;48.680;9.004;2023-04-06T05:08:05;-2.40;99.90
10433;DHT22;5263;48.680;9.004;2023-04-06T05:10:30;-2.40;99.90
10433;DHT22;5263;48.680;9.004;2023-04-06T05:12:56;-2.20;99.90
10433;DHT22;5263;48.680;9.004;2023-04-06T05:15:22;-2.30;99.90
10433;DHT22;5263;48.680;9.004;2023-04-06T05:17:47;-1.90;99.90
10433;DHT22;5263;48.680;9.004;2023-04-06T05:20:13;-1.50;99.90
10433;DHT22;5263;48.680;9.004;2023-04-06T05:22:39;-2.00;99.90
10433;DHT22;5263;48.680;9.004;2023-04-06T05:25:05;-1.50;99.90
10433;DHT22;5263;48.680;9.004;2023-04-06T05:27:30;-1.60;99.90
10433;DHT22;5263;48.680;9.004;2023-04-06T05:29:56;-1.50;99.90
10433;DHT22;5263;48.680;9.004;2023-04-06T05:32:22;-1.30;99.90
10433;DHT22;5263;48.680;9.004;2023-04-06T05:34:50;-1.60;99.90
10433;DHT22;5263;48.680;9.004;2023-04-06T05:37:15;-1.70;99.90
10433;DHT22;5263;48.680;9.004;2023-04-06T05:39:42;-1.90;99.90
10433;DHT22;5263;48.680;9.004;2023-04-06T05:42:07;-1.90;99.90
10433;DHT22;5263;48.680;9.004;2023-04-06T05:44:33;-1.80;99.90
10433;DHT22;5263;48.680;9.004;2023-04-06T05:46:59;-1.50;99.90
10433;DHT22;5263;48.680;9.004;2023-04-06T05:49:24;-1.40;99.90
10433;DHT22;5263;48.680;9.004;2023-04-06T05:51:50;-1.00;99.90
10433;DHT22;5263;48.680;9.004;2023-04-06T05:54:16;-1.30;99.90
10433;DHT22;5263;48.680;9.004;2023-04-06T05:56:41;-1.10;99.90
10433;DHT22;5263;48.680;9.004;2023-04-06T05:59:07;-1.20;99.90
10433;DHT22;5263;48.680;9.004;2023-04-06T06:01:33;-1.00;99.90
10433;DHT22;5263;48.680;9.004;2023-04-06T06:04:03;-0.60;99.90
10433;DHT22;5263;48.680;9.004;2023-04-06T06:06:29;-0.70;99.90
10433;DHT22;5263;48.680;9.004;2023-04-06T06:08:58;-0.50;99.90
10433;DHT22;5263;48.680;9.004;2023-04-06T06:11:26;-0.50;99.90
10433;DHT22;5263;48.680;9.004;2023-04-06T06:13:52;-0.30;99.90
10433;DHT22;5263;48.680;9.004;2023-04-06T06:16:18;-0.10;99.90
10433;DHT22;5263;48.680;9.004;2023-04-06T06:18:44;0.10;99.90
10433;DHT22;5263;48.680;9.004;2023-04-06T06:21:10;0.30;99.90
10433;DHT22;5263;48.680;9.004;2023-04-06T06:23:37;0.50;99.90
10433;DHT22;5263;48.680;9.004;2023-04-06T06:26:03;0.70;99.90
10433;DHT22;5263;48.680;9.004;2023-04-06T06:28:30;0.80;99.90
10433;DHT22;5263;48.680;9.004;2023-04-06T06:30:55;1.00;99.90
10433;DHT22;5263;48.680;9.004;2023-04-06T06:33:21;1.10;99.90
10433;DHT22;5263;48.680;9.004;2023-04-06T06:35:47;1.40;99.90
10433;DHT22;5263;48.680;9.004;2023-04-06T06:38:12;1.30;99.90
10433;DHT22;5263;48.680;9.004;2023-04-06T06:40:39;1.60;99.90
10433;DHT22;5263;48.680;9.004;2023-04-06T06:43:04;1.60;99.90
10433;DHT22;5263;48.680;9.004;2023-04-06T06:45:30;1.90;99.90
10433;DHT22;5263;48.680;9.004;2023-04-06T06:47:56;2.00;99.90
10433;DHT22;5263;48.680;9.004;2023-04-06T06:50:22;2.30;99.90
10433;DHT22;5263;48.680;9.004;2023-04-06T06:52:47;2.50;99.90
10433;DHT22;5263;48.680;9.004;2023-04-06T06:55:13;2.80;99.90
10433;DHT22;5263;48.680;9.004;2023-04-06T06:57:38;3.00;99.90
10433;DHT22;5263;48.680;9.004;2023-04-06T07:00:05;3.20;99.90
10433;DHT22;5263;48.680;9.004;2023-04-06T07:02:33;3.20;99.90
10433;DHT22;5263;48.680;9.004;2023-04-06T07:04:59;3.30;99.90
10433;DHT22;5263;48.680;9.004;2023-04-06T07:07:25;3.40;99.90
10433;DHT22;5263;48.680;9.004;2023-04-06T07:09:50;3.40;99.90
10433;DHT22;5263;48.680;9.004;2023-04-06T07:12:16;3.50;99.90
10433;DHT22;5263;48.680;9.004;2023-04-06T07:14:42;3.60;99.90
10433;DHT22;5263;48.680;9.004;2023-04-06T07:17:07;3.80;99.90
10433;DHT22;5263;48.680;9.004;2023-04-06T07:19:33;4.00;99.90
10433;DHT22;5263;48.680;9.004;2023-04-06T07:21:58;4.00;99.90
10433;DHT22;5263;48.680;9.004;2023-04-06T07:24:24;4.10;99.90
10433;DHT22;5263;48.680;9.004;2023-04-06T07:26:50;4.30;99.90
10433;DHT22;5263;48.680;9.004;2023-04-06T07:29:16;4.40;99.90
10433;DHT22;5263;48.680;9.004;2023-04-06T07:31:43;4.60;99.90
10433;DHT22;5263;48.680;9.004;2023-04-06T07:34:09;4.60;99.90
10433;DHT22;5263;48.680;9.004;2023-04-06T07:36:34;4.70;99.90
10433;DHT22;5263;48.680;9.004;2023-04-06T07:39:00;5.00;99.90
10433;DHT22;5263;48.680;9.004;2023-04-06T07:41:26;5.30;99.90
10433;DHT22;5263;48.680;9.004;2023-04-06T07:43:51;5.50;99.90
10433;DHT22;5263;48.680;9.004;2023-04-06T07:46:17;5.60;99.90
10433;DHT22;5263;48.680;9.004;2023-04-06T07:48:42;5.80;99.90
10433;DHT22;5263;48.680;9.004;2023-04-06T07:51:08;5.90;99.90
10433;DHT22;5263;48.680;9.004;2023-04-06T07:53:39;6.10;99.90
10433;DHT22;5263;48.680;9.004;2023-04-06T07:56:05;6.00;99.90
10433;DHT22;5263;48.680;9.004;2023-04-06T07:58:31;6.10;99.90
10433;DHT22;5263;48.680;9.004;2023-04-06T08:00:56;6.10;99.90
10433;DHT22;5263;48.680;9.004;2023-04-06T08:03:23;6.30;99.90
10433;DHT22;5263;48.680;9.004;2023-04-06T08:05:54;6.40;99.90
10433;DHT22;5263;48.680;9.004;2023-04-06T08:08:20;6.30;99.90
10433;DHT22;5263;48.680;9.004;2023-04-06T08:10:47;6.40;99.90
10433;DHT22;5263;48.680;9.004;2023-04-06T08:13:14;6.80;99.90
10433;DHT22;5263;48.680;9.004;2023-04-06T08:15:39;7.00;99.90
10433;DHT22;5263;48.680;9.004;2023-04-06T08:18:05;7.00;99.90
10433;DHT22;5263;48.680;9.004;2023-04-06T08:20:31;7.20;99.90
10433;DHT22;5263;48.680;9.004;2023-04-06T08:22:57;7.30;99.90
10433;DHT22;5263;48.680;9.004;2023-04-06T08:25:22;7.40;99.90
10433;DHT22;5263;48.680;9.004;2023-04-06T08:27:48;7.50;99.90
10433;DHT22;5263;48.680;9.004;2023-04-06T08:30:14;7.70;99.90
10433;DHT22;5263;48.680;9.004;2023-04-06T08:32:41;7.80;99.90
10433;DHT22;5263;48.680;9.004;2023-04-06T08:35:07;7.60;99.00
10433;DHT22;5263;48.680;9.004;2023-04-06T08:37:33;7.80;99.10
10433;DHT22;5263;48.680;9.004;2023-04-06T08:39:59;8.10;99.90
10433;DHT22;5263;48.680;9.004;2023-04-06T08:42:26;8.30;97.40
10433;DHT22;5263;48.680;9.004;2023-04-06T08:44:51;8.70;96.30
10433;DHT22;5263;48.680;9.004;2023-04-06T08:47:18;8.70;95.20
10433;DHT22;5263;48.680;9.004;2023-04-06T08:49:44;8.70;94.50
10433;DHT22;5263;48.680;9.004;2023-04-06T08:52:11;8.20;96.60
10433;DHT22;5263;48.680;9.004;2023-04-06T08:54:37;8.40;98.00
10433;DHT22;5263;48.680;9.004;2023-04-06T08:57:04;8.60;98.00
10433;DHT22;5263;48.680;9.004;2023-04-06T08:59:31;8.80;95.50
10433;DHT22;5263;48.680;9.004;2023-04-06T09:01:57;8.80;93.40
10433;DHT22;5263;48.680;9.004;2023-04-06T09:04:26;9.10;95.60
10433;DHT22;5263;48.680;9.004;2023-04-06T09:06:52;9.30;93.40
10433;DHT22;5263;48.680;9.004;2023-04-06T09:09:18;9.30;94.80
10433;DHT22;5263;48.680;9.004;2023-04-06T09:11:45;9.40;92.40
10433;DHT22;5263;48.680;9.004;2023-04-06T09:14:11;9.40;90.60
10433;DHT22;5263;48.680;9.004;2023-04-06T09:16:41;9.30;90.10
10433;DHT22;5263;48.680;9.004;2023-04-06T09:19:07;9.60;90.80
10433;DHT22;5263;48.680;9.004;2023-04-06T09:21:33;9.80;91.40
10433;DHT22;5263;48.680;9.004;2023-04-06T09:24:00;9.70;82.90
10433;DHT22;5263;48.680;9.004;2023-04-06T09:26:26;9.60;82.50
10433;DHT22;5263;48.680;9.004;2023-04-06T09:28:59;9.50;83.60
10433;DHT22;5263;48.680;9.004;2023-04-06T09:31:30;9.70;83.00
10433;DHT22;5263;48.680;9.004;2023-04-06T09:33:58;9.70;85.70
10433;DHT22;5263;48.680;9.004;2023-04-06T09:36:35;9.90;79.10
10433;DHT22;5263;48.680;9.004;2023-04-06T09:39:04;10.00;82.20
10433;DHT22;5263;48.680;9.004;2023-04-06T09:41:32;10.10;78.20
10433;DHT22;5263;48.680;9.004;2023-04-06T09:44:06;9.80;82.40
10433;DHT22;5263;48.680;9.004;2023-04-06T09:46:44;10.10;80.90
10433;DHT22;5263;48.680;9.004;2023-04-06T09:49:11;10.50;85.30
10433;DHT22;5263;48.680;9.004;2023-04-06T09:51:41;10.80;81.50
10433;DHT22;5263;48.680;9.004;2023-04-06T09:54:11;10.30;80.30
10433;DHT22;5263;48.680;9.004;2023-04-06T09:59:20;11.20;78.70
10433;DHT22;5263;48.680;9.004;2023-04-06T10:01:48;11.30;69.00
10433;DHT22;5263;48.680;9.004;2023-04-06T10:04:39;11.80;70.90
10433;DHT22;5263;48.680;9.004;2023-04-06T10:07:08;13.60;69.40
10433;DHT22;5263;48.680;9.004;2023-04-06T10:09:37;15.60;62.90
10433;DHT22;5263;48.680;9.004;2023-04-06T10:12:04;16.80;58.40
10433;DHT22;5263;48.680;9.004;2023-04-06T10:14:34;15.60;58.10
10433;DHT22;5263;48.680;9.004;2023-04-06T10:17:03;15.20;49.80
10433;DHT22;5263;48.680;9.004;2023-04-06T10:19:53;16.90;51.00
10433;DHT22;5263;48.680;9.004;2023-04-06T10:22:26;19.20;46.90
10433;DHT22;5263;48.680;9.004;2023-04-06T10:24:54;19.90;40.50
10433;DHT22;5263;48.680;9.004;2023-04-06T10:27:30;20.10;40.30
10433;DHT22;5263;48.680;9.004;2023-04-06T10:30:02;19.70;42.50
10433;DHT22;5263;48.680;9.004;2023-04-06T10:32:38;20.50;40.00
10433;DHT22;5263;48.680;9.004;2023-04-06T10:35:08;20.80;39.10
10433;DHT22;5263;48.680;9.004;2023-04-06T10:38:02;22.70;37.70
10433;DHT22;5263;48.680;9.004;2023-04-06T10:40:28;21.40;37.10
10433;DHT22;5263;48.680;9.004;2023-04-06T10:42:55;21.60;32.80
10433;DHT22;5263;48.680;9.004;2023-04-06T10:45:25;22.90;32.10
10433;DHT22;5263;48.680;9.004;2023-04-06T10:47:54;19.50;33.70
10433;DHT22;5263;48.680;9.004;2023-04-06T10:50:21;18.90;35.40
10433;DHT22;5263;48.680;9.004;2023-04-06T10:52:47;21.20;34.50
10433;DHT22;5263;48.680;9.004;2023-04-06T10:55:24;20.10;36.30
10433;DHT22;5263;48.680;9.004;2023-04-06T10:57:51;21.40;32.80
10433;DHT22;5263;48.680;9.004;2023-04-06T11:00:17;21.10;34.40
10433;DHT22;5263;48.680;9.004;2023-04-06T11:02:44;22.30;32.80
10433;DHT22;5263;48.680;9.004;2023-04-06T11:05:11;22.90;32.40
10433;DHT22;5263;48.680;9.004;2023-04-06T11:07:39;23.20;30.40
10433;DHT22;5263;48.680;9.004;2023-04-06T11:10:05;24.80;30.10
10433;DHT22;5263;48.680;9.004;2023-04-06T11:12:31;20.90;31.80
10433;DHT22;5263;48.680;9.004;2023-04-06T11:14:58;21.70;30.60
10433;DHT22;5263;48.680;9.004;2023-04-06T11:17:32;20.20;34.40
10433;DHT22;5263;48.680;9.004;2023-04-06T11:19:58;23.20;31.80
10433;DHT22;5263;48.680;9.004;2023-04-06T11:22:25;20.60;32.80
10433;DHT22;5263;48.680;9.004;2023-04-06T11:24:51;21.50;34.80
10433;DHT22;5263;48.680;9.004;2023-04-06T11:27:21;21.10;35.80
10433;DHT22;5263;48.680;9.004;2023-04-06T11:29:46;21.50;31.60
10433;DHT22;5263;48.680;9.004;2023-04-06T11:32:20;21.40;34.00
10433;DHT22;5263;48.680;9.004;2023-04-06T11:34:47;21.20;33.20
10433;DHT22;5263;48.680;9.004;2023-04-06T11:37:12;21.40;32.80
10433;DHT22;5263;48.680;9.004;2023-04-06T11:39:47;25.00;34.20
10433;DHT22;5263;48.680;9.004;2023-04-06T11:42:24;24.40;30.00
10433;DHT22;5263;48.680;9.004;2023-04-06T11:44:55;23.20;29.90
10433;DHT22;5263;48.680;9.004;2023-04-06T11:47:32;25.50;29.10
10433;DHT22;5263;48.680;9.004;2023-04-06T11:50:06;24.20;31.30
10433;DHT22;5263;48.680;9.004;2023-04-06T11:52:32;23.20;29.80
10433;DHT22;5263;48.680;9.004;2023-04-06T11:54:58;23.60;30.00
10433;DHT22;5263;48.680;9.004;2023-04-06T11:57:24;24.80;28.70
10433;DHT22;5263;48.680;9.004;2023-04-06T11:59:51;22.50;32.10
10433;DHT22;5263;48.680;9.004;2023-04-06T12:02:17;22.50;31.20
10433;DHT22;5263;48.680;9.004;2023-04-06T12:04:43;21.60;32.10
10433;DHT22;5263;48.680;9.004;2023-04-06T12:07:09;22.70;31.30
10433;DHT22;5263;48.680;9.004;2023-04-06T12:09:34;22.20;31.00
10433;DHT22;5263;48.680;9.004;2023-04-06T12:12:01;23.00;30.70
10433;DHT22;5263;48.680;9.004;2023-04-06T12:14:27;23.80;31.90
10433;DHT22;5263;48.680;9.004;2023-04-06T12:16:53;23.70;30.80
10433;DHT22;5263;48.680;9.004;2023-04-06T12:19:18;22.60;33.40
10433;DHT22;5263;48.680;9.004;2023-04-06T12:21:44;23.90;32.60
10433;DHT22;5263;48.680;9.004;2023-04-06T12:24:10;24.00;30.80
10433;DHT22;5263;48.680;9.004;2023-04-06T12:26:35;25.10;28.80
10433;DHT22;5263;48.680;9.004;2023-04-06T12:29:02;24.00;30.00
10433;DHT22;5263;48.680;9.004;2023-04-06T12:31:37;23.00;32.40
10433;DHT22;5263;48.680;9.004;2023-04-06T12:34:10;23.20;33.70
10433;DHT22;5263;48.680;9.004;2023-04-06T12:36:37;23.40;31.00
10433;DHT22;5263;48.680;9.004;2023-04-06T12:39:03;21.70;33.60
10433;DHT22;5263;48.680;9.004;2023-04-06T12:41:29;21.90;33.70
10433;DHT22;5263;48.680;9.004;2023-04-06T12:43:55;22.50;33.00
10433;DHT22;5263;48.680;9.004;2023-04-06T12:46:21;23.50;31.60
10433;DHT22;5263;48.680;9.004;2023-04-06T12:48:47;25.50;29.80
10433;DHT22;5263;48.680;9.004;2023-04-06T12:51:13;23.60;28.50
10433;DHT22;5263;48.680;9.004;2023-04-06T12:53:38;23.50;31.10
10433;DHT22;5263;48.680;9.004;2023-04-06T12:56:15;22.90;33.10
10433;DHT22;5263;48.680;9.004;2023-04-06T12:58:43;20.20;32.60
10433;DHT22;5263;48.680;9.004;2023-04-06T13:01:09;22.80;32.80
10433;DHT22;5263;48.680;9.004;2023-04-06T13:03:35;25.60;28.10
10433;DHT22;5263;48.680;9.004;2023-04-06T13:06:02;27.20;27.30
10433;DHT22;5263;48.680;9.004;2023-04-06T13:08:27;28.10;27.70
10433;DHT22;5263;48.680;9.004;2023-04-06T13:10:53;23.80;29.10
10433;DHT22;5263;48.680;9.004;2023-04-06T13:13:24;26.30;29.40
10433;DHT22;5263;48.680;9.004;2023-04-06T13:15:50;26.60;26.00
10433;DHT22;5263;48.680;9.004;2023-04-06T13:18:16;26.00;26.30
10433;DHT22;5263;48.680;9.004;2023-04-06T13:20:42;24.50;27.40
10433;DHT22;5263;48.680;9.004;2023-04-06T13:23:08;24.00;27.40
10433;DHT22;5263;48.680;9.004;2023-04-06T13:25:34;23.40;28.40
10433;DHT22;5263;48.680;9.004;2023-04-06T13:28:00;21.90;29.20
10433;DHT22;5263;48.680;9.004;2023-04-06T13:30:26;20.00;32.40
10433;DHT22;5263;48.680;9.004;2023-04-06T13:32:51;17.70;32.70
10433;DHT22;5263;48.680;9.004;2023-04-06T13:35:17;18.80;32.50
10433;DHT22;5263;48.680;9.004;2023-04-06T13:37:43;18.70;31.30
10433;DHT22;5263;48.680;9.004;2023-04-06T13:40:09;18.30;33.00
10433;DHT22;5263;48.680;9.004;2023-04-06T13:42:35;18.20;35.00
10433;DHT22;5263;48.680;9.004;2023-04-06T13:45:01;17.10;35.20
10433;DHT22;5263;48.680;9.004;2023-04-06T13:47:27;17.90;37.30
10433;DHT22;5263;48.680;9.004;2023-04-06T13:49:53;18.50;35.30
10433;DHT22;5263;48.680;9.004;2023-04-06T13:52:19;19.60;35.70
10433;DHT22;5263;48.680;9.004;2023-04-06T13:54:45;18.20;35.20
10433;DHT22;5263;48.680;9.004;2023-04-06T13:57:12;17.40;35.60
10433;DHT22;5263;48.680;9.004;2023-04-06T13:59:38;17.40;36.60
10433;DHT22;5263;48.680;9.004;2023-04-06T14:02:06;18.50;35.00
10433;DHT22;5263;48.680;9.004;2023-04-06T14:04:32;19.60;33.20
10433;DHT22;5263;48.680;9.004;2023-04-06T14:06:59;18.50;32.20
10433;DHT22;5263;48.680;9.004;2023-04-06T14:09:25;16.60;34.90
10433;DHT22;5263;48.680;9.004;2023-04-06T14:11:51;16.60;36.70
10433;DHT22;5263;48.680;9.004;2023-04-06T14:14:17;18.10;37.30
10433;DHT22;5263;48.680;9.004;2023-04-06T14:16:43;17.90;37.40
10433;DHT22;5263;48.680;9.004;2023-04-06T14:19:14;18.30;35.70
10433;DHT22;5263;48.680;9.004;2023-04-06T14:21:41;18.60;34.80
10433;DHT22;5263;48.680;9.004;2023-04-06T14:24:07;18.20;36.00
10433;DHT22;5263;48.680;9.004;2023-04-06T14:26:35;17.30;36.70
10433;DHT22;5263;48.680;9.004;2023-04-06T14:29:01;17.00;40.20
10433;DHT22;5263;48.680;9.004;2023-04-06T14:31:27;17.10;38.80
10433;DHT22;5263;48.680;9.004;2023-04-06T14:33:53;16.60;38.70
10433;DHT22;5263;48.680;9.004;2023-04-06T14:36:18;16.40;37.90
10433;DHT22;5263;48.680;9.004;2023-04-06T14:38:44;16.00;39.40
10433;DHT22;5263;48.680;9.004;2023-04-06T14:41:23;15.60;39.80
10433;DHT22;5263;48.680;9.004;2023-04-06T14:43:49;15.60;40.40
10433;DHT22;5263;48.680;9.004;2023-04-06T14:46:14;14.80;41.20
10433;DHT22;5263;48.680;9.004;2023-04-06T14:48:43;14.30;45.30
10433;DHT22;5263;48.680;9.004;2023-04-06T14:51:09;15.10;41.40
10433;DHT22;5263;48.680;9.004;2023-04-06T14:53:34;15.20;40.80
10433;DHT22;5263;48.680;9.004;2023-04-06T14:56:00;15.50;39.70
10433;DHT22;5263;48.680;9.004;2023-04-06T14:58:25;15.00;39.10
10433;DHT22;5263;48.680;9.004;2023-04-06T15:01:01;14.10;41.90
10433;DHT22;5263;48.680;9.004;2023-04-06T15:03:28;14.30;43.20
10433;DHT22;5263;48.680;9.004;2023-04-06T15:05:56;14.40;41.70
10433;DHT22;5263;48.680;9.004;2023-04-06T15:08:26;14.40;42.00
10433;DHT22;5263;48.680;9.004;2023-04-06T15:10:59;14.60;41.90
10433;DHT22;5263;48.680;9.004;2023-04-06T15:13:24;14.60;40.10
10433;DHT22;5263;48.680;9.004;2023-04-06T15:15:51;14.30;40.70
10433;DHT22;5263;48.680;9.004;2023-04-06T15:18:17;14.00;42.10
10433;DHT22;5263;48.680;9.004;2023-04-06T15:20:43;13.80;43.40
10433;DHT22;5263;48.680;9.004;2023-04-06T15:23:09;13.50;42.80
10433;DHT22;5263;48.680;9.004;2023-04-06T15:25:34;13.10;45.00
10433;DHT22;5263;48.680;9.004;2023-04-06T15:28:00;13.30;44.20
10433;DHT22;5263;48.680;9.004;2023-04-06T15:30:26;13.30;44.80
10433;DHT22;5263;48.680;9.004;2023-04-06T15:32:55;13.30;46.00
10433;DHT22;5263;48.680;9.004;2023-04-06T15:35:20;13.30;44.50
10433;DHT22;5263;48.680;9.004;2023-04-06T15:37:46;13.20;44.60
10433;DHT22;5263;48.680;9.004;2023-04-06T15:40:12;13.10;44.60
10433;DHT22;5263;48.680;9.004;2023-04-06T15:42:40;13.10;45.20
10433;DHT22;5263;48.680;9.004;2023-04-06T15:45:09;13.10;44.80
10433;DHT22;5263;48.680;9.004;2023-04-06T15:47:36;13.10;45.00
10433;DHT22;5263;48.680;9.004;2023-04-06T15:50:03;12.90;46.00